Sct Santiago — V7NF7 — position and weather

sailwx.info

Track history (hours):
 
Tides and Currents Weather Stations Pressure Air Temp Water Temp Dewpoint Dewpoint Depression Visibility Wind Speed Wind Dir Waves Ship Positions

Sct Santiago

Last reported at 2016-Dec-06 05:09 UTC. Time now 2016-Dec-08 22:14 UTC.
Position N 01°14' E 103°59'.

; draft 12.2 m.

Type: Cargo ship. MMSI: 538002953.

Date/timePositionNaut miles runAvg speedWind from/ knotsBaromVisibWave heightAir tempDewpointWater temp
2016-Dec-06 05:09N 01°14' E 103°59'8114.3
2016-Dec-05 23:26N 01°40' E 102°42'1415.8
2016-Dec-05 22:32N 01°47' E 102°29'23 0.5
2016-Dec-03 21:23N 02°01' E 102°11'910.2
2016-Dec-03 20:33N 01°56' E 102°18'1010.1
2016-Dec-03 19:32N 01°52' E 102°27'1010.2
2016-Dec-03 18:33N 01°48' E 102°36'1110.0
2016-Dec-03 17:25N 01°43' E 102°47'9 9.9
2016-Dec-03 16:31N 01°40' E 102°55'54 8.9
2016-Dec-03 10:24N 01°15' E 103°43'4 0.2
2016-Dec-02 18:09N 01°16' E 103°47'0 0.5
2016-Dec-02 17:33N 01°16' E 103°47'7 7.2
2016-Dec-02 16:33N 01°14' E 103°53'  
Track history (hours):
 
Tides and Currents Weather Stations Pressure Air Temp Water Temp Dewpoint Dewpoint Depression Visibility Wind Speed Wind Dir Waves Ship Positions

Sct Santiago

Last reported at 2016-Dec-06 05:09 UTC. Time now 2016-Dec-08 22:14 UTC.
Position N 01°14' E 103°59'.

; draft 12.2 m.

Type: Cargo ship. MMSI: 538002953.

Date/timePositionNaut miles runAvg speedWind from/ knotsBaromVisibWave heightAir tempDewpointWater temp
2016-Dec-06 05:09N 01°14' E 103°59'8114.3
2016-Dec-05 23:26N 01°40' E 102°42'1415.8
2016-Dec-05 22:32N 01°47' E 102°29'23 0.5
2016-Dec-03 21:23N 02°01' E 102°11'910.2
2016-Dec-03 20:33N 01°56' E 102°18'1010.1
2016-Dec-03 19:32N 01°52' E 102°27'1010.2
2016-Dec-03 18:33N 01°48' E 102°36'1110.0
2016-Dec-03 17:25N 01°43' E 102°47'9 9.9
2016-Dec-03 16:31N 01°40' E 102°55'54 8.9
2016-Dec-03 10:24N 01°15' E 103°43'4 0.2
2016-Dec-02 18:09N 01°16' E 103°47'0 0.5
2016-Dec-02 17:33N 01°16' E 103°47'7 7.2
2016-Dec-02 16:33N 01°14' E 103°53'  

Dump ship's entire track history